Time;durP1;ratioP1;P1;durP2;ratioP2;P2;SDS_P1;SDS_P2;PMS_P1;PMS_P2;Temp;Humidity;BMP_temperature;BMP_pressure;BME280_temperature;BME280_humidity;BME280_pressure;Samples;Min_cycle;Max_cycle;Signal;HPM_P1;HPM_P2
2023/05/31 00:01:25;;;;;;;5.13;3.40;;;10.00;99.90;;;;;;5065682;28;20713;-84
2023/05/31 00:03:51;;;;;;;5.50;3.42;;;10.10;99.90;;;;;;5079306;28;20052;-84
2023/05/31 00:06:16;;;;;;;6.93;3.95;;;9.90;99.90;;;;;;5070964;28;20044;-84
2023/05/31 00:08:42;;;;;;;7.38;3.22;;;9.90;99.90;;;;;;5087023;28;20098;-84
2023/05/31 00:11:08;;;;;;;6.47;3.25;;;9.90;99.90;;;;;;5080661;28;20109;-84
2023/05/31 00:13:34;;;;;;;5.45;3.25;;;10.10;99.90;;;;;;5086313;28;20185;-84
2023/05/31 00:16:00;;;;;;;8.07;3.90;;;9.80;99.90;;;;;;5068746;28;20166;-84
2023/05/31 00:18:25;;;;;;;9.93;3.85;;;9.80;99.90;;;;;;5069055;28;20589;-84
2023/05/31 00:20:51;;;;;;;10.70;4.03;;;9.80;99.90;;;;;;5078942;28;20052;-85
2023/05/31 00:23:17;;;;;;;6.40;3.58;;;9.70;99.90;;;;;;5079334;28;20509;-85
2023/05/31 00:25:42;;;;;;;7.78;4.68;;;9.70;99.90;;;;;;5060039;28;20196;-85
2023/05/31 00:28:08;;;;;;;9.13;4.43;;;9.70;99.90;;;;;;5079309;28;20718;-84
2023/05/31 00:30:34;;;;;;;7.20;3.88;;;9.70;99.90;;;;;;5052397;28;20059;-84
2023/05/31 00:32:59;;;;;;;7.30;3.88;;;9.60;99.90;;;;;;5082000;28;20045;-85
2023/05/31 00:35:25;;;;;;;7.18;4.35;;;9.60;99.90;;;;;;5080356;28;20051;-84
2023/05/31 00:37:50;;;;;;;9.75;4.03;;;9.60;99.90;;;;;;5077082;28;20166;-84
2023/05/31 00:40:16;;;;;;;5.95;3.83;;;9.60;99.90;;;;;;5086754;28;20448;-84
2023/05/31 00:42:41;;;;;;;6.35;4.00;;;9.50;99.90;;;;;;5095048;28;20044;-85
2023/05/31 00:45:08;;;;;;;6.78;3.78;;;9.50;99.90;;;;;;5077241;28;20041;-85
2023/05/31 00:47:35;;;;;;;7.07;4.15;;;9.50;99.90;;;;;;5052427;28;20049;-85
2023/05/31 00:50:01;;;;;;;7.38;4.47;;;9.50;99.90;;;;;;5070187;28;20087;-85
2023/05/31 00:52:28;;;;;;;9.00;4.20;;;9.90;99.90;;;;;;5075493;28;20118;-84
2023/05/31 00:54:54;;;;;;;6.50;4.07;;;9.40;99.90;;;;;;5088402;28;20051;-85
2023/05/31 00:57:20;;;;;;;7.35;4.50;;;9.50;99.90;;;;;;5073858;28;20041;-84
2023/05/31 00:59:46;;;;;;;7.28;4.03;;;9.40;99.90;;;;;;5089621;28;20085;-84
2023/05/31 01:02:12;;;;;;;6.95;3.63;;;9.40;99.90;;;;;;5064857;28;20293;-84
2023/05/31 01:04:39;;;;;;;7.60;4.28;;;9.40;99.90;;;;;;5089632;28;20063;-84
2023/05/31 01:07:06;;;;;;;6.40;4.35;;;9.30;99.90;;;;;;5053751;28;20352;-84
2023/05/31 01:09:32;;;;;;;6.43;3.95;;;9.30;99.90;;;;;;5069320;28;20072;-85
2023/05/31 01:12:06;;;;;;;6.75;3.72;;;9.30;99.90;;;;;;5069264;28;20037;-85
2023/05/31 01:15:07;;;;;;;8.88;4.32;;;9.30;99.90;;;;;;5070986;28;20044;-84
2023/05/31 01:18:00;;;;;;;7.88;4.20;;;9.30;99.90;;;;;;5068317;28;20074;-84
2023/05/31 01:20:31;;;;;;;6.10;3.83;;;9.30;99.90;;;;;;5063445;28;20059;-85
2023/05/31 01:23:28;;;;;;;8.55;4.40;;;9.30;99.90;;;;;;5088756;28;20055;-85
2023/05/31 01:26:21;;;;;;;7.13;3.80;;;9.20;99.90;;;;;;5068388;28;20048;-85
2023/05/31 01:28:50;;;;;;;7.88;4.20;;;9.20;99.90;;;;;;5062432;28;20044;-85
2023/05/31 01:31:20;;;;;;;6.25;3.97;;;9.20;99.90;;;;;;5060523;28;20452;-84
2023/05/31 01:33:47;;;;;;;8.15;4.63;;;9.40;99.90;;;;;;5068268;28;20045;-85
2023/05/31 01:36:12;;;;;;;7.18;4.22;;;9.20;99.90;;;;;;5067922;28;20048;-84
2023/05/31 01:38:38;;;;;;;7.65;3.95;;;9.20;99.90;;;;;;5078129;28;20499;-85
2023/05/31 01:41:06;;;;;;;5.45;3.88;;;9.80;99.90;;;;;;5052683;28;20047;-85
2023/05/31 01:43:32;;;;;;;7.30;4.38;;;9.10;99.90;;;;;;5063779;28;20465;-85
2023/05/31 01:46:00;;;;;;;7.43;4.20;;;9.10;99.90;;;;;;5069180;28;20097;-84
2023/05/31 01:48:28;;;;;;;7.60;4.40;;;9.10;99.90;;;;;;5067637;28;20049;-85
2023/05/31 01:50:55;;;;;;;8.05;4.28;;;9.50;99.90;;;;;;5052943;28;20044;-84
2023/05/31 01:53:21;;;;;;;7.55;4.40;;;9.10;99.90;;;;;;5070771;28;20048;-84
2023/05/31 01:55:47;;;;;;;7.70;4.25;;;9.10;99.90;;;;;;5060599;28;20435;-85
2023/05/31 01:58:14;;;;;;;7.70;4.32;;;9.00;99.90;;;;;;5082906;28;20044;-85
2023/05/31 02:00:41;;;;;;;7.85;4.05;;;9.00;99.90;;;;;;5071088;28;20044;-84
2023/05/31 02:03:07;;;;;;;8.10;4.30;;;9.00;99.90;;;;;;5078165;28;20045;-84
2023/05/31 02:05:32;;;;;;;8.30;4.50;;;9.00;99.90;;;;;;5080869;28;20040;-84
2023/05/31 02:07:58;;;;;;;7.18;4.10;;;9.00;99.90;;;;;;5085696;28;20047;-85
2023/05/31 02:10:24;;;;;;;6.20;4.13;;;8.90;99.90;;;;;;5054556;28;20124;-85
2023/05/31 02:12:54;;;;;;;8.23;3.90;;;8.90;99.90;;;;;;5067602;28;20507;-85
2023/05/31 02:15:22;;;;;;;7.18;4.80;;;8.90;99.90;;;;;;5073143;28;20506;-84
2023/05/31 02:17:51;;;;;;;7.93;4.32;;;8.90;99.90;;;;;;5064869;28;20044;-84
2023/05/31 02:20:17;;;;;;;8.45;4.40;;;8.90;99.90;;;;;;5072125;28;20052;-84
2023/05/31 02:22:44;;;;;;;8.93;4.78;;;8.90;99.90;;;;;;5075236;28;21663;-85
2023/05/31 02:25:11;;;;;;;7.43;4.50;;;8.90;99.90;;;;;;5055330;28;20525;-85
2023/05/31 02:27:38;;;;;;;8.73;4.85;;;8.80;99.90;;;;;;5085480;28;20040;-84
2023/05/31 02:30:05;;;;;;;7.43;4.53;;;8.80;99.90;;;;;;5070208;28;20427;-84
2023/05/31 02:32:35;;;;;;;7.68;4.90;;;8.80;99.90;;;;;;5088258;28;20055;-85
2023/05/31 02:35:19;;;;;;;9.15;4.80;;;8.80;99.90;;;;;;5061906;28;20772;-84
2023/05/31 02:37:46;;;;;;;6.88;4.60;;;8.80;99.90;;;;;;5074429;28;20036;-85
2023/05/31 02:40:12;;;;;;;8.45;4.05;;;8.60;99.90;;;;;;5081562;28;20048;-84
2023/05/31 02:42:40;;;;;;;9.05;4.55;;;8.80;99.90;;;;;;5068045;28;20059;-84
2023/05/31 02:45:08;;;;;;;9.02;4.55;;;8.80;99.90;;;;;;5083702;28;20063;-85
2023/05/31 02:47:35;;;;;;;9.75;4.57;;;8.80;99.90;;;;;;5086061;28;20466;-84
2023/05/31 02:50:01;;;;;;;8.25;4.32;;;8.70;99.90;;;;;;5080982;28;20102;-85
2023/05/31 02:52:26;;;;;;;7.18;4.30;;;8.70;99.90;;;;;;5067775;28;20048;-84
2023/05/31 02:54:52;;;;;;;7.60;4.03;;;8.70;99.90;;;;;;5065411;28;20040;-84
2023/05/31 02:57:18;;;;;;;9.40;4.30;;;8.70;99.90;;;;;;5068174;28;20044;-84
2023/05/31 02:59:44;;;;;;;6.75;4.38;;;8.70;99.90;;;;;;5081955;28;20563;-84
2023/05/31 03:02:10;;;;;;;7.85;4.97;;;8.60;99.90;;;;;;5086093;28;20048;-84
2023/05/31 03:04:36;;;;;;;9.55;4.97;;;8.60;99.90;;;;;;5081390;28;20047;-84
2023/05/31 03:07:02;;;;;;;8.80;4.53;;;8.60;99.90;;;;;;5055444;28;20048;-84
2023/05/31 03:09:28;;;;;;;8.02;4.50;;;8.60;99.90;;;;;;5077988;28;20054;-84
2023/05/31 03:11:54;;;;;;;8.23;4.63;;;8.80;99.90;;;;;;5060911;28;20033;-84
2023/05/31 03:14:20;;;;;;;8.80;4.35;;;8.60;99.90;;;;;;5067101;28;20129;-84
2023/05/31 03:16:46;;;;;;;7.97;4.97;;;8.60;99.90;;;;;;5064069;28;20040;-84
2023/05/31 03:19:14;;;;;;;7.10;3.95;;;8.60;99.90;;;;;;5078327;28;20930;-84
2023/05/31 03:21:40;;;;;;;7.05;4.30;;;8.60;99.90;;;;;;5050183;28;20067;-84
2023/05/31 03:24:05;;;;;;;9.70;4.30;;;8.60;99.90;;;;;;5072168;28;20411;-84
2023/05/31 03:26:31;;;;;;;7.55;4.38;;;8.50;99.90;;;;;;5068106;28;20095;-84
2023/05/31 03:28:57;;;;;;;9.05;4.90;;;8.50;99.90;;;;;;5068453;28;20436;-84
2023/05/31 03:31:22;;;;;;;8.73;4.55;;;8.60;99.90;;;;;;5085568;28;20507;-85
2023/05/31 03:33:49;;;;;;;6.95;4.72;;;8.50;99.90;;;;;;5073682;28;20524;-84
2023/05/31 03:36:15;;;;;;;9.18;4.70;;;8.50;99.90;;;;;;5084886;28;20094;-84
2023/05/31 03:38:41;;;;;;;10.75;5.35;;;8.50;99.90;;;;;;5066440;28;20484;-84
2023/05/31 03:41:06;;;;;;;8.70;5.18;;;8.50;99.90;;;;;;5066223;28;20083;-84
2023/05/31 03:43:32;;;;;;;11.65;5.43;;;8.50;99.90;;;;;;5069117;28;20056;-84
2023/05/31 03:46:00;;;;;;;10.57;5.00;;;8.60;99.90;;;;;;5049776;28;20389;-84
2023/05/31 03:48:27;;;;;;;9.73;4.68;;;8.60;99.90;;;;;;5067516;28;20107;-86
2023/05/31 03:50:52;;;;;;;7.68;4.90;;;8.60;99.90;;;;;;5064543;28;20045;-85
2023/05/31 03:53:18;;;;;;;8.80;5.07;;;8.60;99.90;;;;;;5066881;28;20409;-83
2023/05/31 03:55:44;;;;;;;11.02;4.80;;;8.70;99.90;;;;;;5051552;28;20051;-83
2023/05/31 03:58:10;;;;;;;8.30;4.57;;;8.70;99.90;;;;;;5066501;28;20389;-84
2023/05/31 04:00:36;;;;;;;7.90;5.30;;;8.70;99.90;;;;;;5068490;28;20048;-84
2023/05/31 04:03:02;;;;;;;10.70;5.55;;;8.70;99.90;;;;;;5078138;28;20047;-84
2023/05/31 04:05:28;;;;;;;9.85;5.60;;;8.80;99.90;;;;;;5071577;28;20080;-84
2023/05/31 04:07:54;;;;;;;10.88;4.97;;;8.80;99.90;;;;;;5075854;28;20072;-84
2023/05/31 04:10:19;;;;;;;10.98;5.32;;;9.00;99.90;;;;;;5095051;28;20050;-84
2023/05/31 04:12:45;;;;;;;9.07;5.35;;;9.00;99.90;;;;;;5067747;28;20048;-85
2023/05/31 04:15:11;;;;;;;11.30;5.78;;;8.90;99.90;;;;;;5048950;28;20040;-84
2023/05/31 04:17:37;;;;;;;10.30;5.80;;;8.90;99.90;;;;;;5071733;28;20127;-84
2023/05/31 04:20:09;;;;;;;10.32;5.55;;;9.00;99.90;;;;;;5081389;28;20200;-84
2023/05/31 04:22:35;;;;;;;12.90;6.18;;;9.10;99.90;;;;;;5068461;28;20040;-83
2023/05/31 04:25:02;;;;;;;12.95;5.88;;;9.10;99.90;;;;;;5066504;28;20496;-84
2023/05/31 04:27:28;;;;;;;14.32;5.78;;;9.20;99.90;;;;;;5070982;28;20044;-84
2023/05/31 04:29:57;;;;;;;8.65;5.47;;;9.20;99.90;;;;;;5068240;28;20052;-84
2023/05/31 04:32:24;;;;;;;13.63;6.00;;;9.30;99.90;;;;;;5049890;28;20053;-84
2023/05/31 04:34:52;;;;;;;12.32;5.93;;;9.30;99.90;;;;;;5066771;28;20047;-84
2023/05/31 04:37:18;;;;;;;14.07;6.63;;;9.40;99.90;;;;;;5078491;28;20048;-85
2023/05/31 04:39:43;;;;;;;15.10;6.70;;;9.40;99.90;;;;;;5049423;28;20129;-84
2023/05/31 04:42:11;;;;;;;12.60;6.43;;;9.50;99.90;;;;;;5086450;28;20067;-85
2023/05/31 04:44:37;;;;;;;12.30;6.35;;;10.20;99.90;;;;;;5085246;28;20051;-85
2023/05/31 04:47:04;;;;;;;12.18;6.22;;;9.70;99.90;;;;;;5081314;28;20083;-85
2023/05/31 04:49:30;;;;;;;12.18;5.45;;;9.70;99.90;;;;;;5073431;28;20052;-84
2023/05/31 04:51:56;;;;;;;14.68;5.95;;;9.80;99.90;;;;;;5064648;28;20045;-84
2023/05/31 04:54:22;;;;;;;15.40;6.88;;;9.90;99.90;;;;;;5066676;28;20674;-84
2023/05/31 04:56:48;;;;;;;10.25;5.72;;;9.90;99.90;;;;;;5061459;28;20036;-84
2023/05/31 04:59:14;;;;;;;21.63;7.10;;;10.00;99.90;;;;;;5067479;28;20053;-84
2023/05/31 05:01:40;;;;;;;13.15;5.65;;;10.10;99.90;;;;;;5066380;28;20052;-84
2023/05/31 05:04:06;;;;;;;12.98;6.03;;;10.10;99.90;;;;;;5065937;28;20450;-83
2023/05/31 05:06:33;;;;;;;13.50;6.05;;;10.40;99.90;;;;;;5057498;28;20041;-83
2023/05/31 05:08:59;;;;;;;12.15;6.50;;;10.30;99.90;;;;;;5052939;28;20040;-84
2023/05/31 05:11:25;;;;;;;12.73;5.68;;;10.40;99.90;;;;;;5050319;28;20051;-84
2023/05/31 05:13:50;;;;;;;14.20;6.25;;;10.50;99.90;;;;;;5047780;28;20051;-84
2023/05/31 05:16:16;;;;;;;11.73;5.72;;;10.80;99.90;;;;;;5076383;28;20074;-83
2023/05/31 05:18:42;;;;;;;11.57;5.53;;;10.60;99.90;;;;;;5079496;28;20093;-85
2023/05/31 05:21:08;;;;;;;13.15;6.38;;;10.70;99.90;;;;;;5072182;28;20155;-85
2023/05/31 05:23:35;;;;;;;11.50;6.22;;;10.80;99.90;;;;;;5067241;28;20186;-85
2023/05/31 05:26:02;;;;;;;13.45;6.80;;;11.00;99.90;;;;;;5067926;28;20060;-84
2023/05/31 05:28:28;;;;;;;14.35;7.00;;;11.60;99.90;;;;;;5069782;28;20052;-85
2023/05/31 05:30:54;;;;;;;16.17;7.63;;;11.60;99.90;;;;;;5070078;28;20064;-85
2023/05/31 05:33:20;;;;;;;11.70;7.18;;;12.50;99.90;;;;;;5083517;28;20090;-85
2023/05/31 05:35:45;;;;;;;12.32;7.05;;;13.80;99.90;;;;;;5075619;28;20094;-86
2023/05/31 05:38:11;;;;;;;15.52;7.50;;;15.00;99.90;;;;;;5053597;28;20045;-84
2023/05/31 05:40:37;;;;;;;11.25;7.28;;;15.90;99.90;;;;;;5070662;28;20051;-85
2023/05/31 05:43:02;;;;;;;14.57;7.00;;;16.80;99.90;;;;;;5082105;28;20088;-84
2023/05/31 05:45:28;;;;;;;10.95;7.22;;;17.50;99.90;;;;;;5091399;28;20047;-84
2023/05/31 05:47:55;;;;;;;9.45;6.43;;;18.10;99.90;;;;;;5111051;28;20043;-85
2023/05/31 05:50:21;;;;;;;10.73;6.97;;;19.40;99.90;;;;;;5094782;28;20048;-85
2023/05/31 05:52:47;;;;;;;10.15;6.53;;;19.60;99.90;;;;;;5088958;28;20048;-85
2023/05/31 05:55:13;;;;;;;10.00;5.95;;;19.70;99.90;;;;;;5088829;28;20092;-85
2023/05/31 05:57:38;;;;;;;9.18;5.82;;;20.00;99.90;;;;;;5088252;28;20039;-86
2023/05/31 06:00:10;;;;;;;10.60;5.88;;;20.10;99.90;;;;;;5073500;28;20043;-85
2023/05/31 06:02:36;;;;;;;9.80;6.28;;;19.90;99.90;;;;;;5071175;28;20055;-85
2023/05/31 06:05:02;;;;;;;9.25;6.07;;;20.10;99.90;;;;;;5088634;28;20044;-85
2023/05/31 06:07:27;;;;;;;8.32;5.95;;;20.10;99.90;;;;;;5088846;28;20132;-85
2023/05/31 06:09:53;;;;;;;10.70;6.35;;;20.30;99.90;;;;;;5072447;28;20751;-84
2023/05/31 06:12:19;;;;;;;12.02;6.43;;;20.30;99.90;;;;;;5051978;28;20138;-84
2023/05/31 06:14:44;;;;;;;10.45;5.95;;;20.70;99.90;;;;;;5051914;28;20063;-85
2023/05/31 06:17:10;;;;;;;9.48;5.65;;;20.40;99.90;;;;;;5081640;28;20039;-85
2023/05/31 06:19:36;;;;;;;7.53;5.75;;;20.30;99.90;;;;;;5106483;28;20047;-85
2023/05/31 06:22:01;;;;;;;10.18;6.15;;;20.50;99.90;;;;;;5089014;28;20041;-84
2023/05/31 06:24:27;;;;;;;8.32;5.18;;;20.60;99.60;;;;;;5079176;28;20137;-84
2023/05/31 06:26:52;;;;;;;7.00;4.97;;;20.60;99.20;;;;;;5068148;28;20793;-84
2023/05/31 06:29:18;;;;;;;5.97;4.65;;;21.00;98.40;;;;;;5052118;28;20150;-85
2023/05/31 06:31:44;;;;;;;9.55;5.10;;;21.00;97.40;;;;;;5083982;28;20432;-82
2023/05/31 06:34:10;;;;;;;8.30;4.70;;;20.00;97.10;;;;;;5067573;28;20060;-84
2023/05/31 06:36:35;;;;;;;5.65;4.10;;;19.20;99.50;;;;;;5074209;28;20043;-84
2023/05/31 06:39:01;;;;;;;7.93;5.00;;;18.60;99.90;;;;;;5088599;28;20044;-84
2023/05/31 06:41:28;;;;;;;8.55;5.20;;;18.00;99.90;;;;;;5071846;28;20689;-85
2023/05/31 06:43:53;;;;;;;10.63;5.22;;;17.60;99.90;;;;;;5062263;28;20131;-85
2023/05/31 06:46:19;;;;;;;8.93;4.88;;;17.20;99.90;;;;;;5067851;28;20632;-84
2023/05/31 06:48:44;;;;;;;8.13;4.82;;;16.90;99.90;;;;;;5054139;28;20075;-82
2023/05/31 06:51:10;;;;;;;6.85;4.78;;;16.70;99.90;;;;;;5085142;28;20044;-82
2023/05/31 06:53:36;;;;;;;9.77;5.15;;;16.70;99.90;;;;;;5086923;28;20052;-82
2023/05/31 06:56:02;;;;;;;8.68;4.50;;;17.00;99.90;;;;;;5079123;28;20512;-83
2023/05/31 06:58:31;;;;;;;8.30;4.80;;;16.50;99.90;;;;;;5069059;28;20419;-83
2023/05/31 07:00:57;;;;;;;6.90;4.28;;;16.70;99.90;;;;;;5084899;28;20749;-84
2023/05/31 07:03:23;;;;;;;7.70;4.30;;;16.70;99.90;;;;;;5081995;28;20047;-82
2023/05/31 07:05:48;;;;;;;9.43;4.80;;;16.70;99.90;;;;;;5086055;28;20059;-82
2023/05/31 07:08:16;;;;;;;8.70;4.60;;;16.70;99.90;;;;;;5064610;28;20047;-81
2023/05/31 07:10:44;;;;;;;7.43;4.68;;;16.70;99.90;;;;;;5081288;28;20048;-83
2023/05/31 07:13:11;;;;;;;8.90;4.45;;;16.80;99.90;;;;;;5072035;28;20495;-83
2023/05/31 07:15:37;;;;;;;7.22;4.45;;;16.90;99.90;;;;;;5097561;28;20040;-83
2023/05/31 07:18:03;;;;;;;9.30;4.35;;;17.00;99.90;;;;;;5109928;28;20083;-82
2023/05/31 07:20:28;;;;;;;10.88;5.10;;;17.10;99.90;;;;;;5107691;28;20075;-82
2023/05/31 07:22:54;;;;;;;8.77;5.13;;;17.10;99.90;;;;;;5095696;28;20123;-82
2023/05/31 07:25:20;;;;;;;8.50;4.88;;;17.10;99.90;;;;;;5086545;28;20230;-82
2023/05/31 07:27:45;;;;;;;7.25;5.22;;;17.10;99.90;;;;;;5071301;28;20133;-82
2023/05/31 07:30:11;;;;;;;11.95;4.80;;;17.20;99.90;;;;;;5088576;28;20059;-82
2023/05/31 07:32:37;;;;;;;8.07;4.70;;;17.30;99.90;;;;;;5091929;28;20851;-82
2023/05/31 07:35:03;;;;;;;7.13;4.72;;;17.40;99.90;;;;;;5106624;28;20127;-82
2023/05/31 07:37:28;;;;;;;7.93;5.00;;;17.60;99.90;;;;;;5109247;28;20035;-82
2023/05/31 07:39:55;;;;;;;7.45;4.78;;;17.60;99.90;;;;;;5106483;28;20395;-82
2023/05/31 07:42:21;;;;;;;9.27;5.03;;;17.90;99.90;;;;;;5108230;28;20051;-82
2023/05/31 07:44:48;;;;;;;7.95;4.88;;;17.90;99.90;;;;;;5107606;28;20058;-82
2023/05/31 07:47:19;;;;;;;7.88;4.53;;;18.00;99.90;;;;;;5071101;28;20582;-82
2023/05/31 07:49:46;;;;;;;9.20;4.80;;;18.30;99.90;;;;;;5108293;28;20039;-83
2023/05/31 07:52:12;;;;;;;9.25;5.18;;;18.40;99.90;;;;;;5090681;28;20440;-84
2023/05/31 07:54:37;;;;;;;7.95;4.45;;;18.40;99.90;;;;;;5108304;28;20116;-84
2023/05/31 07:57:03;;;;;;;8.48;4.72;;;18.50;99.90;;;;;;5102770;28;20119;-85
2023/05/31 07:59:29;;;;;;;7.32;4.32;;;18.50;99.90;;;;;;5069733;28;20087;-84
2023/05/31 08:01:55;;;;;;;6.43;4.53;;;18.50;99.90;;;;;;5080157;28;20040;-86
2023/05/31 08:04:21;;;;;;;7.05;4.85;;;18.50;99.90;;;;;;5102618;28;20038;-83
2023/05/31 08:06:46;;;;;;;7.90;4.60;;;18.60;99.90;;;;;;5087023;28;20549;-83
2023/05/31 08:09:12;;;;;;;7.28;4.43;;;18.50;99.90;;;;;;5087864;28;20130;-83
2023/05/31 08:11:38;;;;;;;6.55;4.57;;;18.60;99.90;;;;;;5086210;28;20427;-84
2023/05/31 08:14:04;;;;;;;6.18;4.70;;;18.50;99.90;;;;;;5086631;28;20079;-84
2023/05/31 08:16:32;;;;;;;8.57;4.15;;;18.60;99.90;;;;;;5066258;28;20056;-85
2023/05/31 08:18:58;;;;;;;5.57;3.83;;;18.80;99.90;;;;;;5097414;28;20051;-83
2023/05/31 08:21:23;;;;;;;5.75;4.20;;;19.10;99.90;;;;;;5107107;28;20047;-82
2023/05/31 08:23:49;;;;;;;6.18;4.40;;;19.00;99.90;;;;;;5106536;28;20075;-83
2023/05/31 08:26:15;;;;;;;7.78;4.50;;;19.10;99.40;;;;;;5106333;28;20051;-83
2023/05/31 08:28:41;;;;;;;8.50;3.88;;;19.20;99.00;;;;;;5106372;28;20122;-83
2023/05/31 08:31:07;;;;;;;6.63;3.95;;;19.60;98.80;;;;;;5106210;28;20054;-83
2023/05/31 08:33:33;;;;;;;6.22;4.15;;;19.50;98.10;;;;;;5092699;28;20051;-82
2023/05/31 08:35:59;;;;;;;5.10;3.25;;;19.50;98.10;;;;;;5095026;28;20043;-81
2023/05/31 08:38:27;;;;;;;5.85;4.03;;;19.70;97.60;;;;;;5107836;28;20059;-82
2023/05/31 08:40:54;;;;;;;7.72;4.00;;;19.80;97.10;;;;;;5109503;28;20047;-80
2023/05/31 08:43:21;;;;;;;5.72;3.35;;;19.90;96.90;;;;;;5110842;28;20040;-79
2023/05/31 08:45:50;;;;;;;5.10;3.65;;;20.20;96.60;;;;;;5109632;28;20134;-81
2023/05/31 08:48:42;;;;;;;4.72;3.22;;;20.30;95.60;;;;;;5091717;28;20066;-81
2023/05/31 08:51:09;;;;;;;4.93;3.00;;;20.30;93.80;;;;;;5107739;28;20668;-81
2023/05/31 08:53:34;;;;;;;6.55;3.65;;;20.30;94.30;;;;;;5111040;28;20502;-81
2023/05/31 08:56:02;;;;;;;7.95;3.83;;;20.30;93.70;;;;;;5112986;28;20055;-81
2023/05/31 08:58:29;;;;;;;6.88;3.45;;;20.40;93.40;;;;;;5114249;28;20043;-81
2023/05/31 09:00:55;;;;;;;4.68;3.05;;;20.10;93.10;;;;;;5114228;28;20130;-81
2023/05/31 09:03:22;;;;;;;6.13;3.15;;;20.20;92.50;;;;;;5113695;28;20474;-81
2023/05/31 09:05:48;;;;;;;5.60;2.72;;;20.30;92.40;;;;;;5113590;28;20047;-81
2023/05/31 09:08:14;;;;;;;6.75;3.75;;;20.40;92.20;;;;;;5115896;27;20141;-81
2023/05/31 09:10:41;;;;;;;6.70;3.25;;;20.50;91.60;;;;;;5107908;28;20157;-82
2023/05/31 09:13:07;;;;;;;7.22;4.05;;;20.60;91.60;;;;;;5091186;28;20086;-81
2023/05/31 09:15:36;;;;;;;9.15;4.20;;;20.50;91.00;;;;;;5073642;28;20079;-82
2023/05/31 09:18:38;;;;;;;6.97;4.00;;;20.40;90.60;;;;;;5090576;28;20051;-81
2023/05/31 09:21:12;;;;;;;5.38;3.25;;;20.60;90.80;;;;;;5037041;28;20060;-82
2023/05/31 09:23:50;;;;;;;5.07;3.05;;;20.80;90.50;;;;;;5071441;28;20149;-81
2023/05/31 09:26:16;;;;;;;6.05;2.95;;;20.90;90.50;;;;;;5089997;28;20040;-81
2023/05/31 09:28:48;;;;;;;6.55;3.47;;;21.20;90.20;;;;;;5087996;28;20039;-82
2023/05/31 09:31:15;;;;;;;6.40;3.47;;;21.30;86.80;;;;;;5087992;28;20048;-81
2023/05/31 09:33:42;;;;;;;3.85;2.97;;;21.50;88.10;;;;;;5087857;28;20052;-82
2023/05/31 09:36:08;;;;;;;8.57;3.97;;;21.50;86.80;;;;;;5087278;28;20093;-81
2023/05/31 09:38:35;;;;;;;4.93;3.42;;;21.50;85.90;;;;;;5090299;28;20044;-81
2023/05/31 09:41:21;;;;;;;8.32;3.60;;;21.50;85.50;;;;;;5073720;28;20157;-82
2023/05/31 09:43:48;;;;;;;8.95;3.35;;;21.40;79.20;;;;;;5089688;28;20487;-82
2023/05/31 09:46:18;;;;;;;6.35;3.50;;;21.40;85.20;;;;;;5076819;28;20031;-82
2023/05/31 09:48:58;;;;;;;8.45;4.18;;;21.50;85.10;;;;;;5109185;28;20044;-81
2023/05/31 09:51:23;;;;;;;5.22;3.22;;;21.60;83.70;;;;;;5110617;28;20110;-81
2023/05/31 09:53:51;;;;;;;5.00;3.80;;;21.60;83.80;;;;;;5110226;28;20058;-81
2023/05/31 09:56:21;;;;;;;7.00;3.92;;;21.70;83.30;;;;;;5091891;28;20115;-81
2023/05/31 09:58:51;;;;;;;9.90;3.75;;;21.60;83.30;;;;;;5087923;28;20154;-81
2023/05/31 10:01:19;;;;;;;7.15;3.50;;;21.70;82.80;;;;;;5093423;28;20052;-81
2023/05/31 10:03:47;;;;;;;6.72;3.42;;;21.70;82.00;;;;;;5091261;28;20044;-80
2023/05/31 10:06:16;;;;;;;6.35;3.22;;;21.90;81.50;;;;;;5073359;28;20052;-81
2023/05/31 10:08:43;;;;;;;9.82;3.60;;;22.10;81.20;;;;;;5071665;28;20075;-82
2023/05/31 10:11:12;;;;;;;4.22;2.90;;;22.00;80.60;;;;;;5088367;28;20052;-82
2023/05/31 10:13:43;;;;;;;6.65;3.60;;;22.10;80.30;;;;;;5095204;28;20051;-81
2023/05/31 10:16:10;;;;;;;6.35;3.60;;;22.30;78.90;;;;;;5089319;28;20043;-82
2023/05/31 10:18:40;;;;;;;5.75;3.03;;;22.30;79.40;;;;;;5090099;28;20044;-82
2023/05/31 10:21:24;;;;;;;6.45;3.00;;;22.40;79.00;;;;;;5088487;28;20168;-81
2023/05/31 10:24:02;;;;;;;6.32;3.38;;;22.50;78.40;;;;;;5090384;28;20125;-83
2023/05/31 10:26:54;;;;;;;6.95;3.50;;;22.60;78.50;;;;;;5088991;28;20055;-82
2023/05/31 10:29:26;;;;;;;5.47;2.90;;;22.60;75.00;;;;;;5089285;28;20465;-82
2023/05/31 10:31:55;;;;;;;4.90;2.90;;;22.60;76.50;;;;;;5067710;28;20067;-82
2023/05/31 10:34:25;;;;;;;4.97;3.13;;;22.60;76.50;;;;;;5085914;28;20104;-82
2023/05/31 10:36:55;;;;;;;6.15;4.20;;;22.70;74.90;;;;;;5088742;28;20081;-82
2023/05/31 10:39:24;;;;;;;4.18;3.10;;;22.70;75.60;;;;;;5077795;28;20404;-82
2023/05/31 10:42:24;;;;;;;5.40;3.30;;;22.60;75.00;;;;;;5059404;28;20100;-82
2023/05/31 10:45:00;;;;;;;4.30;3.20;;;22.70;73.90;;;;;;5078836;28;20075;-81
2023/05/31 10:47:36;;;;;;;6.00;3.10;;;22.60;74.50;;;;;;5089628;28;20048;-82
2023/05/31 10:50:03;;;;;;;4.75;3.22;;;22.70;73.60;;;;;;5069491;28;20412;-82
2023/05/31 10:52:30;;;;;;;4.38;2.78;;;22.80;75.10;;;;;;5070042;28;20052;-82
2023/05/31 10:55:16;;;;;;;7.78;3.38;;;23.10;74.40;;;;;;5054550;28;20045;-82
2023/05/31 10:57:42;;;;;;;4.22;2.95;;;22.80;72.50;;;;;;5072255;28;20074;-82
2023/05/31 11:00:11;;;;;;;3.95;2.85;;;23.00;74.30;;;;;;5091314;28;20074;-82
2023/05/31 11:02:45;;;;;;;5.65;3.08;;;23.00;74.40;;;;;;5091343;28;20181;-84
2023/05/31 11:05:22;;;;;;;4.60;3.08;;;23.00;74.30;;;;;;5091009;28;20054;-83
2023/05/31 11:07:50;;;;;;;5.63;2.80;;;23.10;74.60;;;;;;5109768;28;20092;-83
2023/05/31 11:10:31;;;;;;;4.80;2.65;;;23.20;74.50;;;;;;5100133;28;20387;-83
2023/05/31 11:13:02;;;;;;;4.35;2.90;;;23.50;73.10;;;;;;5068998;28;20120;-83
2023/05/31 11:15:41;;;;;;;7.60;3.28;;;23.60;74.50;;;;;;5089837;28;20073;-83
2023/05/31 11:18:25;;;;;;;5.95;3.35;;;23.60;73.70;;;;;;5090853;28;20051;-83
2023/05/31 11:20:51;;;;;;;12.88;3.67;;;23.40;73.30;;;;;;5090818;28;20793;-83
2023/05/31 11:23:17;;;;;;;6.30;3.38;;;23.10;75.60;;;;;;5084604;28;20044;-83
2023/05/31 11:25:43;;;;;;;6.80;3.70;;;23.10;76.60;;;;;;5087005;28;20093;-83
2023/05/31 11:28:09;;;;;;;4.90;3.80;;;23.10;77.00;;;;;;5087962;28;20059;-82
2023/05/31 11:30:36;;;;;;;12.52;3.42;;;23.00;76.80;;;;;;5086929;28;20067;-83
2023/05/31 11:33:03;;;;;;;7.03;3.15;;;22.90;77.50;;;;;;5086859;28;20040;-83
2023/05/31 11:35:33;;;;;;;6.97;3.00;;;23.00;78.00;;;;;;5086657;28;20044;-82
2023/05/31 11:38:04;;;;;;;7.00;3.58;;;23.10;77.80;;;;;;5080506;28;20055;-83
2023/05/31 11:40:31;;;;;;;8.27;3.90;;;23.00;77.80;;;;;;5095379;28;20047;-83
2023/05/31 11:43:08;;;;;;;7.88;3.42;;;22.80;78.50;;;;;;5067327;28;20048;-83
2023/05/31 11:45:37;;;;;;;7.25;3.33;;;22.80;78.70;;;;;;5084837;28;20119;-83
2023/05/31 11:48:17;;;;;;;9.27;3.70;;;23.10;79.00;;;;;;5085528;28;20697;-83
2023/05/31 11:50:43;;;;;;;8.75;3.50;;;23.10;78.70;;;;;;5087608;28;20095;-82
2023/05/31 11:53:10;;;;;;;7.65;3.95;;;23.10;78.70;;;;;;5086558;28;20076;-83
2023/05/31 11:55:36;;;;;;;7.72;3.60;;;23.10;78.10;;;;;;5086402;28;20705;-82
2023/05/31 11:58:07;;;;;;;7.10;4.07;;;23.00;77.90;;;;;;5086883;28;20040;-82
2023/05/31 12:00:34;;;;;;;7.47;3.83;;;23.10;77.60;;;;;;5089172;28;20074;-84
2023/05/31 12:03:04;;;;;;;7.00;3.97;;;23.10;77.40;;;;;;5078357;28;20063;-84
2023/05/31 12:05:30;;;;;;;8.65;4.07;;;23.00;76.40;;;;;;5066469;28;20561;-83
2023/05/31 12:07:56;;;;;;;10.35;4.22;;;23.20;76.50;;;;;;5066274;28;20067;-84
2023/05/31 12:10:32;;;;;;;8.15;4.25;;;23.20;75.60;;;;;;5066162;28;20598;-84
2023/05/31 12:12:58;;;;;;;6.55;4.28;;;23.10;75.30;;;;;;5066136;28;20041;-84
2023/05/31 12:15:26;;;;;;;6.28;3.60;;;23.20;75.30;;;;;;5065660;28;20098;-84
2023/05/31 12:17:51;;;;;;;9.48;4.10;;;23.10;75.00;;;;;;5066649;28;20131;-84
2023/05/31 12:20:17;;;;;;;9.13;3.90;;;23.10;74.60;;;;;;5066344;28;20130;-84
2023/05/31 12:22:43;;;;;;;6.60;3.60;;;23.20;74.70;;;;;;5084832;28;20135;-84
2023/05/31 12:25:09;;;;;;;8.50;3.90;;;23.30;74.40;;;;;;5104719;28;20047;-84
2023/05/31 12:27:35;;;;;;;4.53;3.63;;;23.30;73.70;;;;;;5110331;28;20048;-84
2023/05/31 12:30:01;;;;;;;6.30;4.00;;;23.20;73.20;;;;;;5103235;28;20112;-84
2023/05/31 12:32:28;;;;;;;7.80;4.40;;;23.10;73.20;;;;;;5089824;28;20063;-84
2023/05/31 12:35:08;;;;;;;7.00;3.92;;;23.00;73.50;;;;;;5064012;28;20048;-84
2023/05/31 12:37:38;;;;;;;9.10;4.32;;;23.10;74.10;;;;;;5074624;28;20043;-83
2023/05/31 12:40:08;;;;;;;10.10;4.50;;;23.20;73.70;;;;;;5106637;28;20036;-84
2023/05/31 12:42:34;;;;;;;8.82;4.07;;;23.30;73.20;;;;;;5113428;28;20188;-84
2023/05/31 12:45:04;;;;;;;7.72;4.07;;;23.20;73.70;;;;;;5113483;28;20134;-84
2023/05/31 12:47:29;;;;;;;6.75;3.90;;;23.10;74.30;;;;;;5112996;28;20048;-84
2023/05/31 12:50:05;;;;;;;6.97;3.80;;;22.90;73.50;;;;;;5072202;28;20391;-84
2023/05/31 12:52:33;;;;;;;9.20;4.00;;;23.10;73.20;;;;;;5073758;28;20041;-84